sensor_id;sensor_type;location;lat;lon;timestamp;temperature;humidity
59572;DHT22;70118;45.638;11.714;2023-08-17T00:01:51;29.30;75.00
59572;DHT22;70118;45.638;11.714;2023-08-17T00:04:17;29.30;75.10
59572;DHT22;70118;45.638;11.714;2023-08-17T00:06:43;29.20;75.00
59572;DHT22;70118;45.638;11.714;2023-08-17T00:09:09;29.30;75.10
59572;DHT22;70118;45.638;11.714;2023-08-17T00:11:38;29.30;74.80
59572;DHT22;70118;45.638;11.714;2023-08-17T00:14:04;29.20;75.00
59572;DHT22;70118;45.638;11.714;2023-08-17T00:16:31;29.40;74.90
59572;DHT22;70118;45.638;11.714;2023-08-17T00:18:56;29.20;75.00
59572;DHT22;70118;45.638;11.714;2023-08-17T00:21:23;29.30;75.00
59572;DHT22;70118;45.638;11.714;2023-08-17T00:23:49;29.20;75.10
59572;DHT22;70118;45.638;11.714;2023-08-17T00:26:15;29.20;74.90
59572;DHT22;70118;45.638;11.714;2023-08-17T00:28:41;29.30;74.90
59572;DHT22;70118;45.638;11.714;2023-08-17T00:31:07;29.30;75.00
59572;DHT22;70118;45.638;11.714;2023-08-17T00:33:32;29.20;75.10
59572;DHT22;70118;45.638;11.714;2023-08-17T00:35:58;29.30;75.20
59572;DHT22;70118;45.638;11.714;2023-08-17T00:38:24;29.30;75.10
59572;DHT22;70118;45.638;11.714;2023-08-17T00:40:50;29.20;75.50
59572;DHT22;70118;45.638;11.714;2023-08-17T00:43:16;29.30;75.50
59572;DHT22;70118;45.638;11.714;2023-08-17T00:45:44;29.30;75.40
59572;DHT22;70118;45.638;11.714;2023-08-17T00:48:10;29.30;75.30
59572;DHT22;70118;45.638;11.714;2023-08-17T00:50:37;29.20;75.20
59572;DHT22;70118;45.638;11.714;2023-08-17T00:53:03;29.20;75.40
59572;DHT22;70118;45.638;11.714;2023-08-17T00:55:29;29.20;75.20
59572;DHT22;70118;45.638;11.714;2023-08-17T00:57:56;29.30;75.40
59572;DHT22;70118;45.638;11.714;2023-08-17T01:00:24;29.20;75.30
59572;DHT22;70118;45.638;11.714;2023-08-17T01:02:53;29.20;75.30
59572;DHT22;70118;45.638;11.714;2023-08-17T01:05:21;29.30;75.30
59572;DHT22;70118;45.638;11.714;2023-08-17T01:07:47;29.30;75.40
59572;DHT22;70118;45.638;11.714;2023-08-17T01:10:14;29.20;75.40
59572;DHT22;70118;45.638;11.714;2023-08-17T01:13:21;29.20;75.40
59572;DHT22;70118;45.638;11.714;2023-08-17T01:15:54;29.30;75.30
59572;DHT22;70118;45.638;11.714;2023-08-17T01:18:31;29.30;75.40
59572;DHT22;70118;45.638;11.714;2023-08-17T01:20:57;29.30;75.30
59572;DHT22;70118;45.638;11.714;2023-08-17T01:23:23;29.30;75.30
59572;DHT22;70118;45.638;11.714;2023-08-17T01:25:49;29.30;75.20
59572;DHT22;70118;45.638;11.714;2023-08-17T01:28:15;29.20;75.20
59572;DHT22;70118;45.638;11.714;2023-08-17T01:30:55;29.20;75.20
59572;DHT22;70118;45.638;11.714;2023-08-17T01:33:39;29.30;75.30
59572;DHT22;70118;45.638;11.714;2023-08-17T01:36:13;29.20;75.20
59572;DHT22;70118;45.638;11.714;2023-08-17T01:38:40;29.20;75.20
59572;DHT22;70118;45.638;11.714;2023-08-17T01:41:09;29.20;75.10
59572;DHT22;70118;45.638;11.714;2023-08-17T01:43:44;29.30;75.20
59572;DHT22;70118;45.638;11.714;2023-08-17T01:46:15;29.30;75.20
59572;DHT22;70118;45.638;11.714;2023-08-17T01:48:42;29.20;75.30
59572;DHT22;70118;45.638;11.714;2023-08-17T01:51:09;29.30;75.30
59572;DHT22;70118;45.638;11.714;2023-08-17T01:53:35;29.20;75.30
59572;DHT22;70118;45.638;11.714;2023-08-17T01:56:01;29.20;75.40
59572;DHT22;70118;45.638;11.714;2023-08-17T01:58:27;29.20;75.20
59572;DHT22;70118;45.638;11.714;2023-08-17T02:00:53;29.20;75.50
59572;DHT22;70118;45.638;11.714;2023-08-17T02:03:18;29.20;75.40
59572;DHT22;70118;45.638;11.714;2023-08-17T02:05:45;29.20;75.60
59572;DHT22;70118;45.638;11.714;2023-08-17T02:08:11;29.20;75.60
59572;DHT22;70118;45.638;11.714;2023-08-17T02:10:37;29.30;75.60
59572;DHT22;70118;45.638;11.714;2023-08-17T02:13:03;29.30;75.70
59572;DHT22;70118;45.638;11.714;2023-08-17T02:15:30;29.20;75.50
59572;DHT22;70118;45.638;11.714;2023-08-17T02:18:01;29.10;75.50
59572;DHT22;70118;45.638;11.714;2023-08-17T02:20:27;29.10;75.60
59572;DHT22;70118;45.638;11.714;2023-08-17T02:22:52;29.20;75.50
59572;DHT22;70118;45.638;11.714;2023-08-17T02:25:18;29.20;75.60
59572;DHT22;70118;45.638;11.714;2023-08-17T02:27:44;29.10;75.50
59572;DHT22;70118;45.638;11.714;2023-08-17T02:30:10;29.20;75.60
59572;DHT22;70118;45.638;11.714;2023-08-17T02:32:36;29.20;75.70
59572;DHT22;70118;45.638;11.714;2023-08-17T02:35:02;29.10;75.60
59572;DHT22;70118;45.638;11.714;2023-08-17T02:37:28;29.20;75.70
59572;DHT22;70118;45.638;11.714;2023-08-17T02:39:54;29.10;76.00
59572;DHT22;70118;45.638;11.714;2023-08-17T02:42:20;29.20;75.90
59572;DHT22;70118;45.638;11.714;2023-08-17T02:44:46;29.20;75.70
59572;DHT22;70118;45.638;11.714;2023-08-17T02:47:11;29.20;75.70
59572;DHT22;70118;45.638;11.714;2023-08-17T02:49:37;29.10;75.80
59572;DHT22;70118;45.638;11.714;2023-08-17T02:52:03;29.20;75.60
59572;DHT22;70118;45.638;11.714;2023-08-17T02:54:29;29.30;75.80
59572;DHT22;70118;45.638;11.714;2023-08-17T02:56:57;29.20;75.60
59572;DHT22;70118;45.638;11.714;2023-08-17T02:59:23;29.10;75.70
59572;DHT22;70118;45.638;11.714;2023-08-17T03:01:49;29.20;75.70
59572;DHT22;70118;45.638;11.714;2023-08-17T03:04:14;29.20;75.70
59572;DHT22;70118;45.638;11.714;2023-08-17T03:06:40;29.20;75.60
59572;DHT22;70118;45.638;11.714;2023-08-17T03:09:06;29.10;75.70
59572;DHT22;70118;45.638;11.714;2023-08-17T03:11:32;29.20;75.60
59572;DHT22;70118;45.638;11.714;2023-08-17T03:13:58;29.20;75.60
59572;DHT22;70118;45.638;11.714;2023-08-17T03:16:27;29.20;75.90
59572;DHT22;70118;45.638;11.714;2023-08-17T03:18:53;29.20;75.70
59572;DHT22;70118;45.638;11.714;2023-08-17T03:21:19;29.10;75.60
59572;DHT22;70118;45.638;11.714;2023-08-17T03:23:45;29.10;75.80
59572;DHT22;70118;45.638;11.714;2023-08-17T03:26:11;29.20;75.90
59572;DHT22;70118;45.638;11.714;2023-08-17T03:28:37;29.20;76.00
59572;DHT22;70118;45.638;11.714;2023-08-17T03:31:03;29.20;75.90
59572;DHT22;70118;45.638;11.714;2023-08-17T03:33:29;29.10;75.90
59572;DHT22;70118;45.638;11.714;2023-08-17T03:35:55;29.20;76.00
59572;DHT22;70118;45.638;11.714;2023-08-17T03:38:21;29.20;76.00
59572;DHT22;70118;45.638;11.714;2023-08-17T03:40:47;29.10;76.10
59572;DHT22;70118;45.638;11.714;2023-08-17T03:43:13;29.10;76.20
59572;DHT22;70118;45.638;11.714;2023-08-17T03:45:41;29.10;76.40
59572;DHT22;70118;45.638;11.714;2023-08-17T03:48:08;29.10;76.40
59572;DHT22;70118;45.638;11.714;2023-08-17T03:50:34;29.10;76.60
59572;DHT22;70118;45.638;11.714;2023-08-17T03:53:00;29.10;76.00
59572;DHT22;70118;45.638;11.714;2023-08-17T03:55:26;29.10;76.50
59572;DHT22;70118;45.638;11.714;2023-08-17T03:57:52;29.10;75.90
59572;DHT22;70118;45.638;11.714;2023-08-17T04:00:18;29.10;75.90
59572;DHT22;70118;45.638;11.714;2023-08-17T04:02:44;29.10;76.40
59572;DHT22;70118;45.638;11.714;2023-08-17T04:05:10;29.10;76.40
59572;DHT22;70118;45.638;11.714;2023-08-17T04:07:36;29.10;76.20
59572;DHT22;70118;45.638;11.714;2023-08-17T04:10:03;29.10;76.30
59572;DHT22;70118;45.638;11.714;2023-08-17T04:12:30;29.10;76.20
59572;DHT22;70118;45.638;11.714;2023-08-17T04:14:56;29.10;76.20
59572;DHT22;70118;45.638;11.714;2023-08-17T04:17:22;29.10;76.30
59572;DHT22;70118;45.638;11.714;2023-08-17T04:19:48;29.10;76.20
59572;DHT22;70118;45.638;11.714;2023-08-17T04:22:14;29.10;76.20
59572;DHT22;70118;45.638;11.714;2023-08-17T04:24:40;29.10;76.20
59572;DHT22;70118;45.638;11.714;2023-08-17T04:27:05;29.10;75.60
59572;DHT22;70118;45.638;11.714;2023-08-17T04:29:32;29.10;75.70
59572;DHT22;70118;45.638;11.714;2023-08-17T04:31:58;29.10;75.70
59572;DHT22;70118;45.638;11.714;2023-08-17T04:34:24;29.00;75.60
59572;DHT22;70118;45.638;11.714;2023-08-17T04:36:50;29.10;76.20
59572;DHT22;70118;45.638;11.714;2023-08-17T04:39:16;29.10;75.80
59572;DHT22;70118;45.638;11.714;2023-08-17T04:41:43;29.10;75.80
59572;DHT22;70118;45.638;11.714;2023-08-17T04:44:09;29.10;76.40
59572;DHT22;70118;45.638;11.714;2023-08-17T04:46:35;29.10;76.30
59572;DHT22;70118;45.638;11.714;2023-08-17T04:49:01;29.00;75.70
59572;DHT22;70118;45.638;11.714;2023-08-17T04:51:27;29.10;75.80
59572;DHT22;70118;45.638;11.714;2023-08-17T04:53:53;29.10;76.20
59572;DHT22;70118;45.638;11.714;2023-08-17T04:56:19;29.00;75.90
59572;DHT22;70118;45.638;11.714;2023-08-17T04:58:45;29.00;75.70
59572;DHT22;70118;45.638;11.714;2023-08-17T05:01:11;29.10;76.20
59572;DHT22;70118;45.638;11.714;2023-08-17T05:03:37;29.10;76.30
59572;DHT22;70118;45.638;11.714;2023-08-17T05:06:02;29.10;76.10
59572;DHT22;70118;45.638;11.714;2023-08-17T05:08:29;29.10;76.20
59572;DHT22;70118;45.638;11.714;2023-08-17T05:10:55;29.10;76.30
59572;DHT22;70118;45.638;11.714;2023-08-17T05:13:21;29.10;76.30
59572;DHT22;70118;45.638;11.714;2023-08-17T05:15:46;29.10;76.40
59572;DHT22;70118;45.638;11.714;2023-08-17T05:18:12;29.10;76.30
59572;DHT22;70118;45.638;11.714;2023-08-17T05:20:38;29.10;76.20
59572;DHT22;70118;45.638;11.714;2023-08-17T05:23:04;29.10;76.20
59572;DHT22;70118;45.638;11.714;2023-08-17T05:25:30;29.10;76.50
59572;DHT22;70118;45.638;11.714;2023-08-17T05:27:56;29.10;76.30
59572;DHT22;70118;45.638;11.714;2023-08-17T05:30:22;29.20;76.50
59572;DHT22;70118;45.638;11.714;2023-08-17T05:32:48;29.10;76.50
59572;DHT22;70118;45.638;11.714;2023-08-17T05:35:14;29.10;76.60
59572;DHT22;70118;45.638;11.714;2023-08-17T05:37:39;29.20;76.60
59572;DHT22;70118;45.638;11.714;2023-08-17T05:40:06;29.20;76.60
59572;DHT22;70118;45.638;11.714;2023-08-17T05:42:36;29.20;76.70
59572;DHT22;70118;45.638;11.714;2023-08-17T05:45:03;29.10;76.60
59572;DHT22;70118;45.638;11.714;2023-08-17T05:47:29;29.10;76.70
59572;DHT22;70118;45.638;11.714;2023-08-17T05:49:55;29.20;76.70
59572;DHT22;70118;45.638;11.714;2023-08-17T05:52:21;29.20;76.50
59572;DHT22;70118;45.638;11.714;2023-08-17T05:55:01;29.20;76.30
59572;DHT22;70118;45.638;11.714;2023-08-17T05:57:41;29.20;75.80
59572;DHT22;70118;45.638;11.714;2023-08-17T06:00:09;29.20;75.70
59572;DHT22;70118;45.638;11.714;2023-08-17T06:02:41;29.10;75.50
59572;DHT22;70118;45.638;11.714;2023-08-17T06:05:24;29.00;74.70
59572;DHT22;70118;45.638;11.714;2023-08-17T06:08:07;29.00;74.10
59572;DHT22;70118;45.638;11.714;2023-08-17T06:10:47;28.90;74.50
59572;DHT22;70118;45.638;11.714;2023-08-17T06:13:14;29.00;74.50
59572;DHT22;70118;45.638;11.714;2023-08-17T06:15:41;29.20;74.70
59572;DHT22;70118;45.638;11.714;2023-08-17T06:18:09;29.20;74.60
59572;DHT22;70118;45.638;11.714;2023-08-17T06:20:39;29.10;74.40
59572;DHT22;70118;45.638;11.714;2023-08-17T06:23:06;29.20;74.30
59572;DHT22;70118;45.638;11.714;2023-08-17T06:25:32;29.20;74.10
59572;DHT22;70118;45.638;11.714;2023-08-17T06:27:58;29.40;74.00
59572;DHT22;70118;45.638;11.714;2023-08-17T06:30:24;29.30;74.00
59572;DHT22;70118;45.638;11.714;2023-08-17T06:32:57;29.30;74.00
59572;DHT22;70118;45.638;11.714;2023-08-17T06:35:28;29.20;73.80
59572;DHT22;70118;45.638;11.714;2023-08-17T06:37:54;29.30;73.70
59572;DHT22;70118;45.638;11.714;2023-08-17T06:40:24;29.30;73.70
59572;DHT22;70118;45.638;11.714;2023-08-17T06:42:51;29.30;73.80
59572;DHT22;70118;45.638;11.714;2023-08-17T06:45:18;29.40;73.60
59572;DHT22;70118;45.638;11.714;2023-08-17T06:47:49;29.40;73.70
59572;DHT22;70118;45.638;11.714;2023-08-17T06:50:17;29.30;73.70
59572;DHT22;70118;45.638;11.714;2023-08-17T06:52:43;29.30;73.50
59572;DHT22;70118;45.638;11.714;2023-08-17T06:55:09;29.30;73.50
59572;DHT22;70118;45.638;11.714;2023-08-17T06:57:36;29.30;73.40
59572;DHT22;70118;45.638;11.714;2023-08-17T07:00:02;29.30;73.30
59572;DHT22;70118;45.638;11.714;2023-08-17T07:02:31;29.30;73.30
59572;DHT22;70118;45.638;11.714;2023-08-17T07:04:57;29.30;73.20
59572;DHT22;70118;45.638;11.714;2023-08-17T07:07:23;29.30;73.20
59572;DHT22;70118;45.638;11.714;2023-08-17T07:09:53;29.40;73.30
59572;DHT22;70118;45.638;11.714;2023-08-17T07:12:22;29.30;73.20
59572;DHT22;70118;45.638;11.714;2023-08-17T07:15:01;29.30;73.10
59572;DHT22;70118;45.638;11.714;2023-08-17T07:17:30;29.40;73.10
59572;DHT22;70118;45.638;11.714;2023-08-17T07:19:56;29.40;73.20
59572;DHT22;70118;45.638;11.714;2023-08-17T07:22:22;29.40;73.20
59572;DHT22;70118;45.638;11.714;2023-08-17T07:24:53;29.30;73.00
59572;DHT22;70118;45.638;11.714;2023-08-17T07:27:22;29.30;73.00
59572;DHT22;70118;45.638;11.714;2023-08-17T07:29:49;29.30;73.00
59572;DHT22;70118;45.638;11.714;2023-08-17T07:32:15;29.30;72.90
59572;DHT22;70118;45.638;11.714;2023-08-17T07:34:42;29.30;73.00
59572;DHT22;70118;45.638;11.714;2023-08-17T07:37:09;29.30;72.80
59572;DHT22;70118;45.638;11.714;2023-08-17T07:39:35;29.30;72.90
59572;DHT22;70118;45.638;11.714;2023-08-17T07:42:01;29.40;72.80
59572;DHT22;70118;45.638;11.714;2023-08-17T07:44:27;29.30;72.70
59572;DHT22;70118;45.638;11.714;2023-08-17T07:46:54;29.30;72.70
59572;DHT22;70118;45.638;11.714;2023-08-17T07:49:20;29.30;72.70
59572;DHT22;70118;45.638;11.714;2023-08-17T07:51:48;29.30;72.70
59572;DHT22;70118;45.638;11.714;2023-08-17T07:54:14;29.30;72.70
59572;DHT22;70118;45.638;11.714;2023-08-17T07:56:40;29.30;72.60
59572;DHT22;70118;45.638;11.714;2023-08-17T07:59:06;29.40;72.60
59572;DHT22;70118;45.638;11.714;2023-08-17T08:01:32;29.40;72.70
59572;DHT22;70118;45.638;11.714;2023-08-17T08:03:58;29.40;72.60
59572;DHT22;70118;45.638;11.714;2023-08-17T08:06:24;29.40;72.50
59572;DHT22;70118;45.638;11.714;2023-08-17T08:08:49;29.30;72.60
59572;DHT22;70118;45.638;11.714;2023-08-17T08:11:15;29.40;72.30
59572;DHT22;70118;45.638;11.714;2023-08-17T08:13:41;29.40;72.40
59572;DHT22;70118;45.638;11.714;2023-08-17T08:16:07;29.40;72.30
59572;DHT22;70118;45.638;11.714;2023-08-17T08:18:33;29.40;72.40
59572;DHT22;70118;45.638;11.714;2023-08-17T08:20:59;29.40;72.40
59572;DHT22;70118;45.638;11.714;2023-08-17T08:23:25;29.30;72.50
59572;DHT22;70118;45.638;11.714;2023-08-17T08:25:51;29.40;72.40
59572;DHT22;70118;45.638;11.714;2023-08-17T08:28:24;29.40;72.40
59572;DHT22;70118;45.638;11.714;2023-08-17T08:30:53;29.40;72.50
59572;DHT22;70118;45.638;11.714;2023-08-17T08:33:19;29.40;72.50
59572;DHT22;70118;45.638;11.714;2023-08-17T08:35:45;29.50;72.40
59572;DHT22;70118;45.638;11.714;2023-08-17T08:38:11;29.30;72.60
59572;DHT22;70118;45.638;11.714;2023-08-17T08:40:38;29.40;72.60
59572;DHT22;70118;45.638;11.714;2023-08-17T08:43:07;29.40;72.50
59572;DHT22;70118;45.638;11.714;2023-08-17T08:45:36;29.50;72.60
59572;DHT22;70118;45.638;11.714;2023-08-17T08:48:04;29.40;72.60
59572;DHT22;70118;45.638;11.714;2023-08-17T08:50:32;29.40;72.60
59572;DHT22;70118;45.638;11.714;2023-08-17T08:53:02;29.50;72.60
59572;DHT22;70118;45.638;11.714;2023-08-17T08:55:32;29.40;72.70
59572;DHT22;70118;45.638;11.714;2023-08-17T08:57:59;29.40;72.80
59572;DHT22;70118;45.638;11.714;2023-08-17T09:00:26;29.50;72.80
59572;DHT22;70118;45.638;11.714;2023-08-17T09:02:53;29.40;72.90
59572;DHT22;70118;45.638;11.714;2023-08-17T09:05:19;29.40;73.00
59572;DHT22;70118;45.638;11.714;2023-08-17T09:07:48;29.50;72.80
59572;DHT22;70118;45.638;11.714;2023-08-17T09:10:16;29.40;72.80
59572;DHT22;70118;45.638;11.714;2023-08-17T09:12:45;29.40;72.70
59572;DHT22;70118;45.638;11.714;2023-08-17T09:15:11;29.50;72.70
59572;DHT22;70118;45.638;11.714;2023-08-17T09:17:37;29.50;72.80
59572;DHT22;70118;45.638;11.714;2023-08-17T09:20:03;29.40;72.70
59572;DHT22;70118;45.638;11.714;2023-08-17T09:22:42;29.50;72.70
59572;DHT22;70118;45.638;11.714;2023-08-17T09:25:10;29.40;72.60
59572;DHT22;70118;45.638;11.714;2023-08-17T09:27:37;29.40;72.70
59572;DHT22;70118;45.638;11.714;2023-08-17T09:30:09;29.40;72.70
59572;DHT22;70118;45.638;11.714;2023-08-17T09:32:36;29.40;72.80
59572;DHT22;70118;45.638;11.714;2023-08-17T09:35:06;29.40;72.80
59572;DHT22;70118;45.638;11.714;2023-08-17T09:37:33;29.40;72.80
59572;DHT22;70118;45.638;11.714;2023-08-17T09:40:01;29.40;73.00
59572;DHT22;70118;45.638;11.714;2023-08-17T09:42:29;29.40;72.90
59572;DHT22;70118;45.638;11.714;2023-08-17T09:44:59;29.40;73.20
59572;DHT22;70118;45.638;11.714;2023-08-17T09:47:27;29.40;73.00
59572;DHT22;70118;45.638;11.714;2023-08-17T09:49:54;29.40;73.10
59572;DHT22;70118;45.638;11.714;2023-08-17T09:52:22;29.40;73.30
59572;DHT22;70118;45.638;11.714;2023-08-17T09:54:52;29.30;73.20
59572;DHT22;70118;45.638;11.714;2023-08-17T09:57:20;29.40;73.20
59572;DHT22;70118;45.638;11.714;2023-08-17T09:59:46;29.40;73.10
59572;DHT22;70118;45.638;11.714;2023-08-17T10:02:17;29.50;73.20
59572;DHT22;70118;45.638;11.714;2023-08-17T10:04:50;29.40;73.10
59572;DHT22;70118;45.638;11.714;2023-08-17T10:07:19;29.40;73.30
59572;DHT22;70118;45.638;11.714;2023-08-17T10:09:53;29.40;73.20
59572;DHT22;70118;45.638;11.714;2023-08-17T10:12:25;29.50;73.30
59572;DHT22;70118;45.638;11.714;2023-08-17T10:15:07;29.40;73.20
59572;DHT22;70118;45.638;11.714;2023-08-17T10:17:46;29.40;73.20
59572;DHT22;70118;45.638;11.714;2023-08-17T10:20:15;29.40;73.30
59572;DHT22;70118;45.638;11.714;2023-08-17T10:22:44;29.40;73.30
59572;DHT22;70118;45.638;11.714;2023-08-17T10:25:15;29.40;73.40
59572;DHT22;70118;45.638;11.714;2023-08-17T10:27:42;29.50;73.50
59572;DHT22;70118;45.638;11.714;2023-08-17T10:30:10;29.50;73.70
59572;DHT22;70118;45.638;11.714;2023-08-17T10:32:36;29.40;73.70
59572;DHT22;70118;45.638;11.714;2023-08-17T10:35:03;29.50;73.50
59572;DHT22;70118;45.638;11.714;2023-08-17T10:37:30;29.40;73.70
59572;DHT22;70118;45.638;11.714;2023-08-17T10:39:57;29.40;73.70
59572;DHT22;70118;45.638;11.714;2023-08-17T10:42:33;29.50;73.40
59572;DHT22;70118;45.638;11.714;2023-08-17T10:45:00;29.40;73.40
59572;DHT22;70118;45.638;11.714;2023-08-17T10:47:31;29.40;73.40
59572;DHT22;70118;45.638;11.714;2023-08-17T10:50:24;29.50;73.30
59572;DHT22;70118;45.638;11.714;2023-08-17T10:52:50;29.40;73.20
59572;DHT22;70118;45.638;11.714;2023-08-17T10:55:38;29.40;73.00
59572;DHT22;70118;45.638;11.714;2023-08-17T10:58:06;29.40;72.90
59572;DHT22;70118;45.638;11.714;2023-08-17T11:00:40;29.40;72.70
59572;DHT22;70118;45.638;11.714;2023-08-17T11:03:09;29.40;72.60
59572;DHT22;70118;45.638;11.714;2023-08-17T11:05:52;29.40;72.40
59572;DHT22;70118;45.638;11.714;2023-08-17T11:08:32;29.40;72.20
59572;DHT22;70118;45.638;11.714;2023-08-17T11:11:06;29.30;72.20
59572;DHT22;70118;45.638;11.714;2023-08-17T11:13:37;29.40;72.20
59572;DHT22;70118;45.638;11.714;2023-08-17T11:16:04;29.30;72.20
59572;DHT22;70118;45.638;11.714;2023-08-17T11:18:32;29.40;71.80
59572;DHT22;70118;45.638;11.714;2023-08-17T11:20:59;29.30;71.60
59572;DHT22;70118;45.638;11.714;2023-08-17T11:23:33;29.40;71.80
59572;DHT22;70118;45.638;11.714;2023-08-17T11:26:00;29.30;72.00
59572;DHT22;70118;45.638;11.714;2023-08-17T11:28:26;29.30;72.00
59572;DHT22;70118;45.638;11.714;2023-08-17T11:30:59;29.30;72.00
59572;DHT22;70118;45.638;11.714;2023-08-17T11:33:26;29.40;72.00
59572;DHT22;70118;45.638;11.714;2023-08-17T11:35:54;29.30;72.00
59572;DHT22;70118;45.638;11.714;2023-08-17T11:38:20;29.30;72.10
59572;DHT22;70118;45.638;11.714;2023-08-17T11:40:46;29.30;72.20
59572;DHT22;70118;45.638;11.714;2023-08-17T11:43:13;29.30;72.30
59572;DHT22;70118;45.638;11.714;2023-08-17T11:45:39;29.20;72.20
59572;DHT22;70118;45.638;11.714;2023-08-17T11:48:05;29.30;72.10
59572;DHT22;70118;45.638;11.714;2023-08-17T11:50:31;29.20;72.00
59572;DHT22;70118;45.638;11.714;2023-08-17T11:53:00;29.40;72.10
59572;DHT22;70118;45.638;11.714;2023-08-17T11:55:28;29.30;71.90
59572;DHT22;70118;45.638;11.714;2023-08-17T11:57:56;29.30;71.80
59572;DHT22;70118;45.638;11.714;2023-08-17T12:00:25;29.30;71.50
59572;DHT22;70118;45.638;11.714;2023-08-17T12:02:53;29.30;71.50
59572;DHT22;70118;45.638;11.714;2023-08-17T12:05:23;29.30;71.50
59572;DHT22;70118;45.638;11.714;2023-08-17T12:07:55;29.20;71.30
59572;DHT22;70118;45.638;11.714;2023-08-17T12:10:27;29.20;71.10
59572;DHT22;70118;45.638;11.714;2023-08-17T12:13:02;29.20;71.00
59572;DHT22;70118;45.638;11.714;2023-08-17T12:15:34;29.20;70.70
59572;DHT22;70118;45.638;11.714;2023-08-17T12:18:02;29.30;70.70
59572;DHT22;70118;45.638;11.714;2023-08-17T12:20:29;29.30;70.50
59572;DHT22;70118;45.638;11.714;2023-08-17T12:22:58;29.20;70.20
59572;DHT22;70118;45.638;11.714;2023-08-17T12:25:26;29.20;70.50
59572;DHT22;70118;45.638;11.714;2023-08-17T12:27:59;29.20;70.30
59572;DHT22;70118;45.638;11.714;2023-08-17T12:30:46;29.20;70.00
59572;DHT22;70118;45.638;11.714;2023-08-17T12:33:40;29.20;70.10
59572;DHT22;70118;45.638;11.714;2023-08-17T12:36:06;29.30;69.70
59572;DHT22;70118;45.638;11.714;2023-08-17T12:38:32;29.20;69.70
59572;DHT22;70118;45.638;11.714;2023-08-17T12:40:58;29.10;69.80
59572;DHT22;70118;45.638;11.714;2023-08-17T12:43:24;29.20;69.40
59572;DHT22;70118;45.638;11.714;2023-08-17T12:45:50;29.20;69.60
59572;DHT22;70118;45.638;11.714;2023-08-17T12:48:19;29.20;69.40
59572;DHT22;70118;45.638;11.714;2023-08-17T12:50:48;29.20;69.20
59572;DHT22;70118;45.638;11.714;2023-08-17T12:53:17;29.20;69.10
59572;DHT22;70118;45.638;11.714;2023-08-17T12:55:43;29.20;69.40
59572;DHT22;70118;45.638;11.714;2023-08-17T12:58:09;29.10;69.30
59572;DHT22;70118;45.638;11.714;2023-08-17T13:00:42;29.10;68.90
59572;DHT22;70118;45.638;11.714;2023-08-17T13:03:12;29.10;68.90
59572;DHT22;70118;45.638;11.714;2023-08-17T13:05:42;29.10;68.90
59572;DHT22;70118;45.638;11.714;2023-08-17T13:08:15;29.10;68.70
59572;DHT22;70118;45.638;11.714;2023-08-17T13:10:44;29.20;68.50
59572;DHT22;70118;45.638;11.714;2023-08-17T13:13:10;29.10;68.90
59572;DHT22;70118;45.638;11.714;2023-08-17T13:15:38;29.20;68.80
59572;DHT22;70118;45.638;11.714;2023-08-17T13:18:09;29.20;68.40
59572;DHT22;70118;45.638;11.714;2023-08-17T13:20:39;29.10;68.30
59572;DHT22;70118;45.638;11.714;2023-08-17T13:23:10;29.20;68.50
59572;DHT22;70118;45.638;11.714;2023-08-17T13:25:41;29.20;68.60
59572;DHT22;70118;45.638;11.714;2023-08-17T13:28:07;29.20;68.30
59572;DHT22;70118;45.638;11.714;2023-08-17T13:30:33;29.10;68.40
59572;DHT22;70118;45.638;11.714;2023-08-17T13:32:59;29.20;68.10
59572;DHT22;70118;45.638;11.714;2023-08-17T13:35:25;29.10;67.90
59572;DHT22;70118;45.638;11.714;2023-08-17T13:37:57;29.10;68.10
59572;DHT22;70118;45.638;11.714;2023-08-17T13:40:31;29.20;68.10
59572;DHT22;70118;45.638;11.714;2023-08-17T13:42:57;29.10;68.10
59572;DHT22;70118;45.638;11.714;2023-08-17T13:45:27;29.20;67.90
59572;DHT22;70118;45.638;11.714;2023-08-17T13:47:53;29.20;68.00
59572;DHT22;70118;45.638;11.714;2023-08-17T13:50:19;29.10;69.80
59572;DHT22;70118;45.638;11.714;2023-08-17T13:52:45;29.10;68.10
59572;DHT22;70118;45.638;11.714;2023-08-17T13:55:11;29.10;68.20
59572;DHT22;70118;45.638;11.714;2023-08-17T13:57:37;29.10;68.00
59572;DHT22;70118;45.638;11.714;2023-08-17T14:00:03;29.10;69.60
59572;DHT22;70118;45.638;11.714;2023-08-17T14:02:30;29.10;68.10
59572;DHT22;70118;45.638;11.714;2023-08-17T14:04:56;29.10;68.10
59572;DHT22;70118;45.638;11.714;2023-08-17T14:07:21;29.10;67.70
59572;DHT22;70118;45.638;11.714;2023-08-17T14:09:47;29.20;67.60
59572;DHT22;70118;45.638;11.714;2023-08-17T14:12:13;29.10;67.80
59572;DHT22;70118;45.638;11.714;2023-08-17T14:14:39;29.10;67.40
59572;DHT22;70118;45.638;11.714;2023-08-17T14:17:06;29.10;67.40
59572;DHT22;70118;45.638;11.714;2023-08-17T14:19:32;29.20;67.30
59572;DHT22;70118;45.638;11.714;2023-08-17T14:21:58;29.20;67.30
59572;DHT22;70118;45.638;11.714;2023-08-17T14:24:27;29.10;67.00
59572;DHT22;70118;45.638;11.714;2023-08-17T14:26:53;29.10;67.20
59572;DHT22;70118;45.638;11.714;2023-08-17T14:29:19;29.10;67.10
59572;DHT22;70118;45.638;11.714;2023-08-17T14:31:46;29.10;67.00
59572;DHT22;70118;45.638;11.714;2023-08-17T14:34:12;29.10;67.00
59572;DHT22;70118;45.638;11.714;2023-08-17T14:36:39;29.10;67.50
59572;DHT22;70118;45.638;11.714;2023-08-17T14:39:06;29.20;67.60
59572;DHT22;70118;45.638;11.714;2023-08-17T14:41:32;29.20;67.90
59572;DHT22;70118;45.638;11.714;2023-08-17T14:44:01;29.10;67.90
59572;DHT22;70118;45.638;11.714;2023-08-17T14:46:28;29.10;67.70
59572;DHT22;70118;45.638;11.714;2023-08-17T14:48:54;29.10;67.60
59572;DHT22;70118;45.638;11.714;2023-08-17T14:51:20;29.10;69.50
59572;DHT22;70118;45.638;11.714;2023-08-17T14:53:46;29.10;69.60
59572;DHT22;70118;45.638;11.714;2023-08-17T14:56:12;29.10;67.30
59572;DHT22;70118;45.638;11.714;2023-08-17T14:58:40;29.10;69.40
59572;DHT22;70118;45.638;11.714;2023-08-17T15:01:06;29.20;67.00
59572;DHT22;70118;45.638;11.714;2023-08-17T15:03:32;29.10;66.60
59572;DHT22;70118;45.638;11.714;2023-08-17T15:05:58;29.20;67.00
59572;DHT22;70118;45.638;11.714;2023-08-17T15:08:24;29.10;68.70
59572;DHT22;70118;45.638;11.714;2023-08-17T15:10:50;29.10;68.60
59572;DHT22;70118;45.638;11.714;2023-08-17T15:13:16;29.10;66.70
59572;DHT22;70118;45.638;11.714;2023-08-17T15:15:44;29.10;66.60
59572;DHT22;70118;45.638;11.714;2023-08-17T15:18:11;29.10;66.00
59572;DHT22;70118;45.638;11.714;2023-08-17T15:20:37;29.10;66.50